Time;durP1;ratioP1;P1;durP2;ratioP2;P2;SDS_P1;SDS_P2;PMS_P1;PMS_P2;Temp;Humidity;BMP_temperature;BMP_pressure;BME280_temperature;BME280_humidity;BME280_pressure;Samples;Min_cycle;Max_cycle;Signal;HPM_P1;HPM_P2
2022/01/21 00:02:27;;;;;;;5.70;2.70;;;13.70;57.40;;;;;;5017581;28;20471;-80
2022/01/21 00:04:55;;;;;;;5.03;1.90;;;13.60;57.40;;;;;;5017856;28;20432;-80
2022/01/21 00:07:23;;;;;;;7.00;2.77;;;13.60;57.50;;;;;;5017944;28;20609;-80
2022/01/21 00:09:51;;;;;;;3.53;2.27;;;13.60;57.40;;;;;;5017835;28;20543;-80
2022/01/21 00:12:19;;;;;;;3.37;2.10;;;13.60;57.60;;;;;;5017482;28;20555;-80
2022/01/21 00:14:47;;;;;;;5.13;2.37;;;13.60;57.40;;;;;;5017524;28;20491;-80
2022/01/21 00:17:17;;;;;;;4.80;1.97;;;13.60;57.40;;;;;;5010156;28;20523;-80
2022/01/21 00:19:52;;;;;;;6.00;2.30;;;13.60;57.40;;;;;;5017605;28;20420;-80
2022/01/21 00:30:38;;;;;;;4.30;2.17;;;13.60;57.40;;;;;;5018022;28;20547;-80
2022/01/21 00:33:05;;;;;;;6.97;2.70;;;13.60;57.50;;;;;;5016799;28;20491;-80
2022/01/21 00:35:35;;;;;;;3.50;2.43;;;13.60;57.60;;;;;;5017264;28;20519;-81
2022/01/21 00:38:03;;;;;;;3.00;2.10;;;13.60;57.50;;;;;;5017467;28;20508;-80
2022/01/21 00:40:33;;;;;;;5.43;1.83;;;13.60;57.40;;;;;;5017959;28;20460;-80
2022/01/21 00:43:13;;;;;;;2.93;2.10;;;13.60;57.50;;;;;;5017190;28;20551;-80
2022/01/21 00:45:41;;;;;;;5.00;2.37;;;13.60;57.60;;;;;;5018138;28;20448;-80
2022/01/21 00:48:09;;;;;;;8.70;2.20;;;13.60;57.60;;;;;;5017909;28;20451;-80
2022/01/21 00:50:39;;;;;;;2.13;1.83;;;13.70;57.50;;;;;;4998798;28;20560;-80
2022/01/21 00:53:07;;;;;;;6.33;2.30;;;13.70;57.50;;;;;;5017240;28;20515;-80
2022/01/21 00:55:35;;;;;;;3.70;2.00;;;13.70;57.50;;;;;;5017342;28;20564;-80
2022/01/21 00:58:06;;;;;;;3.70;2.43;;;13.60;57.50;;;;;;5017377;28;20428;-80
2022/01/21 01:00:36;;;;;;;4.10;2.40;;;13.70;57.60;;;;;;5017328;28;20445;-80
2022/01/21 01:03:05;;;;;;;3.17;2.30;;;13.60;57.60;;;;;;5017286;28;20478;-80
2022/01/21 01:05:33;;;;;;;3.70;2.30;;;13.70;57.70;;;;;;5016411;28;20480;-81
2022/01/21 01:08:03;;;;;;;7.27;2.43;;;13.70;57.70;;;;;;5017071;28;20440;-81
2022/01/21 01:10:48;;;;;;;3.73;2.27;;;13.70;57.70;;;;;;5017184;28;20548;-80
2022/01/21 01:21:32;;;;;;;2.27;1.93;;;13.60;57.60;;;;;;5015182;28;20454;-80
2022/01/21 01:27:36;;;;;;;4.87;2.40;;;13.60;57.50;;;;;;5017403;28;20568;-81
2022/01/21 01:29:40;;;;;;;3.80;2.40;;;13.50;57.50;;;;;;5017177;28;20441;-80
2022/01/21 01:32:08;;;;;;;5.10;2.40;;;13.50;57.50;;;;;;5016930;28;20564;-80
2022/01/21 01:34:36;;;;;;;3.53;2.20;;;13.50;57.80;;;;;;5016422;28;20458;-80
2022/01/21 01:37:11;;;;;;;8.47;1.97;;;13.50;57.70;;;;;;5010585;28;20457;-80
2022/01/21 01:39:44;;;;;;;3.50;2.33;;;13.50;57.70;;;;;;5017096;28;20420;-80
2022/01/21 01:42:39;;;;;;;2.40;1.80;;;13.50;57.60;;;;;;5015898;28;20524;-80
2022/01/21 01:50:39;;;;;;;5.43;2.43;;;13.60;57.80;;;;;;5017107;28;20511;-80
2022/01/21 01:53:07;;;;;;;4.33;2.27;;;13.60;57.90;;;;;;5010787;28;20508;-80
2022/01/21 01:55:37;;;;;;;4.50;2.07;;;13.60;57.80;;;;;;5016051;28;21067;-80
2022/01/21 01:58:05;;;;;;;5.47;2.40;;;13.70;58.00;;;;;;5016407;28;20519;-80
2022/01/21 02:00:33;;;;;;;3.50;2.30;;;13.70;57.80;;;;;;5016658;28;20524;-80
2022/01/21 02:03:05;;;;;;;4.17;2.00;;;13.70;57.90;;;;;;5016483;28;20452;-80
2022/01/21 02:05:33;;;;;;;2.40;1.93;;;13.70;57.90;;;;;;5016836;28;20424;-80
2022/01/21 02:08:02;;;;;;;4.33;2.20;;;13.70;57.90;;;;;;5016973;28;20532;-80
2022/01/21 02:10:30;;;;;;;5.57;2.50;;;13.70;57.90;;;;;;5020082;28;20472;-80
2022/01/21 02:13:05;;;;;;;2.27;2.00;;;13.60;57.80;;;;;;5009771;28;20496;-80
2022/01/21 02:15:36;;;;;;;2.53;2.20;;;13.60;57.90;;;;;;5021178;28;20416;-80
2022/01/21 02:23:38;;;;;;;4.00;2.20;;;13.50;57.80;;;;;;5019596;28;20527;-80
2022/01/21 02:26:05;;;;;;;3.70;2.23;;;13.60;58.00;;;;;;5019262;28;20531;-80
2022/01/21 02:28:33;;;;;;;4.30;2.37;;;13.50;57.90;;;;;;5011247;28;20449;-80
2022/01/21 02:31:02;;;;;;;6.60;2.10;;;13.60;58.10;;;;;;5019503;28;20563;-80
2022/01/21 02:33:30;;;;;;;5.13;2.43;;;13.60;57.90;;;;;;5018937;28;20475;-79
2022/01/21 02:35:58;;;;;;;3.90;2.27;;;13.60;58.00;;;;;;5018908;28;20456;-80
2022/01/21 02:38:26;;;;;;;2.63;1.70;;;13.60;57.80;;;;;;5018912;28;20440;-80
2022/01/21 02:40:56;;;;;;;4.47;2.23;;;13.60;57.80;;;;;;5019264;28;20535;-80
2022/01/21 02:43:24;;;;;;;5.33;2.27;;;13.60;57.90;;;;;;5018839;28;21065;-80
2022/01/21 02:45:52;;;;;;;3.90;2.70;;;13.60;57.90;;;;;;5022015;28;20483;-80
2022/01/21 02:48:22;;;;;;;10.73;2.83;;;13.60;57.80;;;;;;5018041;28;20532;-80
2022/01/21 02:50:50;;;;;;;3.70;2.10;;;13.60;57.90;;;;;;5013931;28;20512;-79
2022/01/21 02:53:27;;;;;;;3.40;2.27;;;13.60;58.00;;;;;;5020110;28;21026;-80
2022/01/21 02:55:56;;;;;;;3.03;2.10;;;13.60;58.10;;;;;;5019088;28;20483;-80
2022/01/21 02:58:25;;;;;;;4.20;2.13;;;13.60;58.10;;;;;;5002492;28;20532;-81
2022/01/21 03:00:53;;;;;;;9.13;2.47;;;13.60;58.00;;;;;;5017110;28;20432;-80
2022/01/21 03:03:21;;;;;;;8.10;2.10;;;13.70;58.20;;;;;;5019065;28;20468;-81
2022/01/21 03:05:50;;;;;;;4.20;2.20;;;13.70;58.10;;;;;;5013675;28;20503;-81
2022/01/21 03:08:18;;;;;;;5.27;2.50;;;13.70;58.00;;;;;;5007481;28;20481;-80
2022/01/21 03:10:46;;;;;;;4.73;2.30;;;13.70;58.00;;;;;;5032716;28;20472;-80
2022/01/21 03:13:15;;;;;;;3.47;2.23;;;13.70;58.20;;;;;;5027407;28;20522;-80
2022/01/21 03:15:44;;;;;;;3.13;2.40;;;13.60;58.20;;;;;;5023237;28;20472;-80
2022/01/21 03:18:12;;;;;;;5.07;2.60;;;13.60;58.20;;;;;;5031106;28;20428;-81
2022/01/21 03:20:39;;;;;;;5.37;2.20;;;13.60;58.10;;;;;;5012132;28;20619;-80
2022/01/21 03:23:08;;;;;;;4.33;2.03;;;13.60;58.20;;;;;;5018314;28;20449;-80
2022/01/21 03:25:36;;;;;;;7.40;2.30;;;13.60;58.20;;;;;;5019187;28;21018;-80
2022/01/21 03:28:05;;;;;;;3.27;2.10;;;13.60;58.30;;;;;;5013595;28;20527;-80
2022/01/21 03:30:34;;;;;;;2.70;2.10;;;13.60;58.30;;;;;;5018922;28;20475;-80
2022/01/21 03:33:02;;;;;;;4.23;2.23;;;13.60;58.20;;;;;;5018263;28;20504;-80
2022/01/21 03:35:30;;;;;;;4.53;1.77;;;13.60;58.30;;;;;;5018488;28;20515;-80
2022/01/21 03:37:58;;;;;;;4.57;2.50;;;13.60;58.30;;;;;;5018856;28;20525;-81
2022/01/21 03:40:27;;;;;;;4.83;2.40;;;13.60;58.30;;;;;;5013941;28;20621;-81
2022/01/21 03:42:54;;;;;;;3.93;2.20;;;13.60;58.30;;;;;;5018583;28;20452;-80
2022/01/21 03:45:22;;;;;;;3.50;2.10;;;13.50;58.00;;;;;;5018293;28;20539;-81
2022/01/21 03:47:52;;;;;;;5.83;2.20;;;13.50;58.00;;;;;;5018676;28;20444;-81
2022/01/21 03:50:23;;;;;;;4.10;2.60;;;13.50;58.00;;;;;;5018654;28;20440;-81
2022/01/21 03:52:51;;;;;;;3.73;2.10;;;13.50;58.20;;;;;;5013663;28;20480;-81
2022/01/21 03:55:19;;;;;;;3.00;1.97;;;13.50;58.30;;;;;;5018342;28;20450;-80
2022/01/21 03:57:47;;;;;;;6.40;2.40;;;13.50;58.00;;;;;;5018447;28;20444;-81
2022/01/21 04:00:19;;;;;;;5.77;2.43;;;13.50;58.00;;;;;;5018135;28;20467;-80
2022/01/21 04:02:47;;;;;;;5.37;2.37;;;13.40;58.10;;;;;;5019002;28;20460;-81
2022/01/21 04:05:16;;;;;;;3.70;1.93;;;13.50;58.20;;;;;;5018450;28;20507;-81
2022/01/21 04:07:44;;;;;;;2.10;1.93;;;13.50;57.90;;;;;;5018548;28;20471;-81
2022/01/21 04:10:16;;;;;;;1.83;1.63;;;13.50;57.80;;;;;;5001762;28;20521;-80
2022/01/21 04:12:44;;;;;;;5.23;2.10;;;13.40;57.80;;;;;;5015732;28;20491;-80
2022/01/21 04:15:12;;;;;;;3.63;2.10;;;13.40;58.00;;;;;;5016246;28;20531;-80
2022/01/21 04:17:40;;;;;;;3.83;1.90;;;13.40;58.10;;;;;;5015290;28;20479;-80
2022/01/21 04:20:10;;;;;;;6.13;2.70;;;13.40;58.00;;;;;;5015594;28;20535;-79
2022/01/21 04:22:40;;;;;;;3.33;2.17;;;13.50;58.10;;;;;;5015710;28;20437;-80
2022/01/21 04:25:09;;;;;;;4.30;2.57;;;13.50;57.90;;;;;;5011521;28;20532;-79
2022/01/21 04:27:36;;;;;;;4.50;2.60;;;13.50;57.90;;;;;;5001780;28;20519;-79
2022/01/21 04:30:05;;;;;;;3.70;2.03;;;13.40;57.80;;;;;;5014153;28;20452;-81
2022/01/21 04:32:32;;;;;;;8.23;2.23;;;13.50;58.10;;;;;;5019511;28;20562;-79
2022/01/21 04:35:00;;;;;;;2.17;1.90;;;13.50;58.10;;;;;;5016685;28;20476;-80
2022/01/21 04:37:28;;;;;;;3.80;2.17;;;13.50;57.90;;;;;;4995888;28;20821;-80
2022/01/21 04:40:03;;;;;;;4.00;2.07;;;13.50;57.90;;;;;;4995924;28;20441;-80
2022/01/21 04:48:03;;;;;;;2.83;1.80;;;13.50;57.90;;;;;;5015483;28;20421;-79
2022/01/21 04:50:41;;;;;;;3.23;1.60;;;13.50;58.00;;;;;;5014915;28;20432;-80
2022/01/21 04:53:08;;;;;;;3.00;2.07;;;13.50;58.10;;;;;;4995345;28;20559;-80
2022/01/21 04:55:38;;;;;;;3.07;1.90;;;13.50;58.30;;;;;;4995518;28;20531;-80
2022/01/21 04:58:07;;;;;;;2.20;2.00;;;13.50;58.10;;;;;;4996164;28;20532;-80
2022/01/21 05:00:35;;;;;;;4.23;2.23;;;13.50;58.20;;;;;;5000270;28;20539;-79
2022/01/21 05:03:04;;;;;;;5.03;2.40;;;13.50;58.30;;;;;;5015982;28;20464;-79
2022/01/21 05:05:33;;;;;;;3.10;2.00;;;13.50;58.20;;;;;;5017694;28;20445;-80
2022/01/21 05:08:05;;;;;;;3.73;2.20;;;13.60;58.40;;;;;;5028380;28;20459;-81
2022/01/21 05:10:35;;;;;;;4.20;2.17;;;13.60;58.40;;;;;;5023196;28;20467;-83
2022/01/21 05:13:05;;;;;;;2.60;2.00;;;13.60;58.30;;;;;;5032414;28;20557;-80
2022/01/21 05:15:47;;;;;;;3.67;2.30;;;13.60;58.20;;;;;;5016015;28;20441;-80
2022/01/21 05:18:14;;;;;;;5.00;2.07;;;13.60;58.20;;;;;;5016999;28;20457;-80
2022/01/21 05:20:42;;;;;;;3.33;2.10;;;13.50;58.30;;;;;;5003824;28;20433;-82
2022/01/21 05:23:10;;;;;;;2.47;1.70;;;13.50;58.20;;;;;;5017300;28;20887;-80
2022/01/21 05:25:38;;;;;;;4.67;2.20;;;13.50;58.50;;;;;;5015628;28;20545;-80
2022/01/21 05:28:08;;;;;;;3.17;2.03;;;13.50;58.50;;;;;;5016439;28;20500;-80
2022/01/21 05:30:36;;;;;;;2.10;1.80;;;13.50;58.70;;;;;;5014800;28;20527;-81
2022/01/21 05:33:04;;;;;;;3.43;1.87;;;13.50;58.70;;;;;;5014408;28;20476;-81
2022/01/21 05:35:32;;;;;;;5.57;2.13;;;13.50;58.70;;;;;;5011276;28;20523;-80
2022/01/21 05:38:00;;;;;;;17.90;2.33;;;13.60;58.60;;;;;;5011540;28;20454;-86
2022/01/21 05:40:28;;;;;;;14.60;2.80;;;13.00;51.80;;;;;;5014303;28;20528;-83
2022/01/21 05:42:57;;;;;;;12.00;2.40;;;9.60;57.30;;;;;;5024496;28;20465;-83
2022/01/21 05:48:12;;;;;;;9.30;2.13;;;7.50;63.40;;;;;;5014972;28;20543;-83
2022/01/21 05:50:40;;;;;;;12.43;1.60;;;6.90;65.00;;;;;;5024719;28;20443;-85
2022/01/21 05:53:10;;;;;;;12.60;2.57;;;6.70;66.30;;;;;;5024550;28;20549;-83
2022/01/21 05:55:41;;;;;;;16.20;2.07;;;6.30;68.70;;;;;;5024526;28;20464;-84
2022/01/21 05:58:10;;;;;;;14.07;2.67;;;6.20;68.70;;;;;;5015976;28;20464;-83
2022/01/21 06:00:39;;;;;;;11.80;2.40;;;5.90;71.30;;;;;;5016998;28;20432;-79
2022/01/21 06:03:07;;;;;;;9.00;1.83;;;7.10;78.70;;;;;;5006057;28;20468;-80
2022/01/21 06:05:35;;;;;;;7.00;1.97;;;8.60;78.10;;;;;;5008288;28;20446;-80
2022/01/21 06:08:04;;;;;;;9.57;2.10;;;9.70;74.20;;;;;;5009846;28;20476;-80
2022/01/21 06:10:31;;;;;;;10.77;1.80;;;10.50;70.40;;;;;;5007427;28;20456;-81
2022/01/21 06:12:59;;;;;;;8.87;2.30;;;11.00;67.00;;;;;;5001168;28;20476;-81
2022/01/21 06:15:27;;;;;;;10.47;2.40;;;11.40;65.30;;;;;;5007529;28;20480;-81
2022/01/21 06:17:56;;;;;;;12.70;1.80;;;11.60;63.50;;;;;;5011495;28;20480;-81
2022/01/21 06:20:24;;;;;;;7.40;1.43;;;11.90;62.40;;;;;;5013485;28;20543;-82
2022/01/21 06:22:52;;;;;;;8.33;1.60;;;12.10;61.30;;;;;;5007945;28;20476;-82
2022/01/21 06:25:20;;;;;;;12.80;2.53;;;12.20;60.40;;;;;;5009813;28;20447;-82
2022/01/21 06:27:48;;;;;;;19.43;2.27;;;12.40;59.90;;;;;;5011557;28;20503;-82
2022/01/21 06:30:16;;;;;;;6.10;1.67;;;12.50;59.60;;;;;;5011015;28;21039;-83
2022/01/21 06:32:44;;;;;;;8.27;2.07;;;12.50;59.00;;;;;;5007628;28;20862;-83
2022/01/21 06:35:14;;;;;;;7.23;1.60;;;12.60;58.90;;;;;;5013207;28;20886;-82
2022/01/21 06:37:41;;;;;;;7.13;1.80;;;12.70;58.80;;;;;;5006425;28;20444;-85
2022/01/21 06:40:10;;;;;;;6.60;2.33;;;12.70;58.40;;;;;;5009670;28;20448;-82
2022/01/21 06:42:38;;;;;;;8.87;2.07;;;12.80;58.50;;;;;;5010140;28;20452;-82
2022/01/21 06:45:07;;;;;;;3.53;1.70;;;12.80;58.40;;;;;;5011729;28;20468;-82
2022/01/21 06:47:35;;;;;;;6.53;1.70;;;12.90;58.30;;;;;;5010263;28;20479;-81
2022/01/21 06:50:03;;;;;;;4.87;1.80;;;12.90;58.30;;;;;;5008421;28;20461;-81
2022/01/21 06:52:32;;;;;;;4.53;1.50;;;12.90;58.90;;;;;;5012740;28;20556;-82
2022/01/21 06:55:00;;;;;;;5.83;1.47;;;13.00;58.40;;;;;;5009871;28;20515;-82
2022/01/21 06:57:28;;;;;;;7.03;2.27;;;13.00;58.30;;;;;;5009881;28;20449;-82
2022/01/21 06:59:57;;;;;;;4.70;1.73;;;13.10;58.50;;;;;;5009797;28;20481;-83
2022/01/21 07:02:25;;;;;;;8.33;2.23;;;13.10;58.30;;;;;;5006962;28;20492;-82
2022/01/21 07:04:53;;;;;;;5.73;1.93;;;13.10;58.10;;;;;;5009060;28;20495;-81
2022/01/21 07:07:22;;;;;;;5.57;2.13;;;13.10;58.20;;;;;;5011531;28;20527;-82
2022/01/21 07:09:51;;;;;;;8.80;1.63;;;13.20;58.30;;;;;;5011747;28;20491;-80
2022/01/21 07:12:18;;;;;;;9.73;2.27;;;13.20;58.20;;;;;;5012842;28;20488;-81
2022/01/21 07:14:46;;;;;;;6.63;1.90;;;13.20;58.30;;;;;;5021364;28;20468;-83
2022/01/21 07:17:14;;;;;;;9.37;1.80;;;13.10;54.90;;;;;;5033546;28;20436;-83
2022/01/21 07:19:42;;;;;;;12.10;2.20;;;12.70;55.40;;;;;;5030776;28;20436;-83
2022/01/21 07:22:10;;;;;;;6.97;1.90;;;12.40;55.30;;;;;;5028541;28;20459;-83
2022/01/21 07:24:38;;;;;;;3.97;1.40;;;12.10;56.10;;;;;;5034636;28;20441;-83
2022/01/21 07:27:07;;;;;;;4.40;1.60;;;12.10;57.70;;;;;;5032861;28;20816;-83
2022/01/21 07:29:35;;;;;;;9.70;1.97;;;12.10;56.90;;;;;;5034326;28;20482;-83
2022/01/21 07:32:04;;;;;;;5.43;1.67;;;12.20;56.20;;;;;;5035687;28;20495;-83
2022/01/21 07:34:32;;;;;;;8.63;1.97;;;12.10;56.20;;;;;;5034601;28;20468;-84
2022/01/21 07:37:00;;;;;;;13.20;2.50;;;12.00;56.80;;;;;;5033920;28;20433;-83
2022/01/21 07:39:28;;;;;;;5.23;1.83;;;12.00;56.00;;;;;;5033252;28;20432;-83
2022/01/21 07:41:56;;;;;;;7.40;1.90;;;12.00;56.20;;;;;;5026897;28;20468;-83
2022/01/21 07:44:26;;;;;;;4.70;1.53;;;12.00;56.80;;;;;;5032644;28;20449;-83
2022/01/21 07:46:54;;;;;;;10.90;1.97;;;12.10;56.50;;;;;;5031916;28;20459;-83
2022/01/21 07:49:21;;;;;;;5.40;2.23;;;12.20;56.30;;;;;;5028938;28;20495;-83
2022/01/21 07:51:49;;;;;;;13.37;6.47;;;12.10;56.60;;;;;;5033565;28;20437;-82
2022/01/21 07:54:17;;;;;;;15.13;5.93;;;12.20;56.50;;;;;;5045223;28;20495;-82
2022/01/21 07:56:45;;;;;;;14.77;4.80;;;12.20;56.20;;;;;;5030489;28;20473;-82
2022/01/21 07:59:14;;;;;;;14.03;4.17;;;12.20;56.20;;;;;;5030508;28;20456;-82
2022/01/21 08:01:43;;;;;;;10.20;3.30;;;12.40;56.40;;;;;;5031316;28;20432;-83
2022/01/21 08:04:11;;;;;;;10.70;3.17;;;12.40;54.80;;;;;;5030625;28;20520;-82
2022/01/21 08:06:39;;;;;;;9.50;3.30;;;12.50;54.60;;;;;;5030828;28;20447;-82
2022/01/21 08:09:07;;;;;;;4.23;2.33;;;12.40;53.80;;;;;;5030165;28;20459;-82
2022/01/21 08:11:36;;;;;;;7.53;2.70;;;12.00;54.80;;;;;;5031962;28;20444;-82
2022/01/21 08:14:04;;;;;;;9.40;2.60;;;11.80;56.50;;;;;;5030593;28;20464;-82
2022/01/21 08:16:35;;;;;;;5.60;2.30;;;11.80;56.50;;;;;;5032304;28;20455;-83
2022/01/21 08:19:05;;;;;;;7.17;2.30;;;11.90;55.60;;;;;;5031553;28;20433;-82
2022/01/21 08:21:32;;;;;;;6.97;2.00;;;11.70;56.60;;;;;;5013354;28;20870;-83
2022/01/21 08:24:01;;;;;;;12.93;2.57;;;11.60;56.70;;;;;;5030216;28;20468;-83
2022/01/21 08:26:29;;;;;;;16.97;2.57;;;11.70;56.60;;;;;;5031871;28;20471;-83
2022/01/21 08:28:57;;;;;;;7.03;1.97;;;11.80;56.30;;;;;;5032499;28;20445;-82
2022/01/21 08:31:25;;;;;;;9.53;2.33;;;11.80;56.40;;;;;;5033142;28;20459;-82
2022/01/21 08:33:54;;;;;;;6.53;2.17;;;11.80;56.30;;;;;;5032069;28;20471;-83
2022/01/21 08:36:24;;;;;;;10.63;2.30;;;11.80;57.60;;;;;;5032830;28;20465;-83
2022/01/21 08:38:52;;;;;;;16.23;2.57;;;11.50;56.20;;;;;;5031980;28;20464;-83
2022/01/21 08:41:21;;;;;;;10.10;2.20;;;11.30;57.20;;;;;;5031990;28;20425;-83
2022/01/21 08:43:48;;;;;;;6.37;2.00;;;11.60;57.90;;;;;;5031466;28;20452;-83
2022/01/21 08:46:16;;;;;;;10.87;2.30;;;11.80;56.50;;;;;;5033326;28;20408;-83
2022/01/21 08:48:45;;;;;;;8.70;2.67;;;11.70;56.10;;;;;;5032588;28;20436;-83
2022/01/21 08:51:19;;;;;;;20.47;2.40;;;11.40;56.70;;;;;;5030478;28;20451;-83
2022/01/21 08:53:49;;;;;;;10.20;2.43;;;11.30;57.60;;;;;;5031346;28;20468;-82
2022/01/21 08:56:17;;;;;;;8.97;2.30;;;11.30;58.00;;;;;;5031064;28;20498;-82
2022/01/21 08:58:46;;;;;;;6.27;2.20;;;11.20;58.70;;;;;;5030760;28;20429;-83
2022/01/21 09:01:14;;;;;;;8.50;2.60;;;11.40;58.40;;;;;;5031231;28;20495;-83
2022/01/21 09:03:43;;;;;;;6.30;1.97;;;11.60;58.10;;;;;;5029544;28;20468;-83
2022/01/21 09:06:16;;;;;;;14.83;2.73;;;11.80;57.20;;;;;;5031123;28;20469;-83
2022/01/21 09:08:46;;;;;;;10.57;2.87;;;11.90;57.00;;;;;;5030175;28;20463;-83
2022/01/21 09:11:15;;;;;;;12.37;2.50;;;12.00;57.20;;;;;;5029410;28;20444;-83
2022/01/21 09:13:43;;;;;;;11.73;2.50;;;11.90;56.40;;;;;;5030265;28;20461;-82
2022/01/21 09:16:11;;;;;;;6.97;2.17;;;11.70;57.20;;;;;;5028881;28;20476;-83
2022/01/21 09:18:47;;;;;;;15.17;2.63;;;11.80;59.20;;;;;;5033750;28;20436;-81
2022/01/21 09:21:33;;;;;;;10.77;2.80;;;12.20;58.10;;;;;;5019269;28;20471;-81
2022/01/21 09:24:01;;;;;;;6.23;2.30;;;12.40;57.60;;;;;;5035087;28;20464;-82
2022/01/21 09:26:30;;;;;;;8.13;2.23;;;12.50;57.20;;;;;;5043710;28;20950;-83
2022/01/21 09:28:59;;;;;;;9.57;2.20;;;12.40;55.90;;;;;;5042988;28;20459;-82
2022/01/21 09:31:27;;;;;;;11.53;2.60;;;12.20;56.40;;;;;;5042786;28;20440;-83
2022/01/21 09:34:16;;;;;;;11.50;2.63;;;12.40;56.40;;;;;;5031464;28;20445;-82
2022/01/21 09:36:43;;;;;;;8.37;2.37;;;12.50;56.40;;;;;;5028028;28;20479;-80
2022/01/21 09:39:11;;;;;;;16.17;3.13;;;12.60;57.30;;;;;;5029402;28;20448;-81
2022/01/21 09:41:42;;;;;;;12.50;2.40;;;12.70;55.80;;;;;;5036691;28;20459;-80
2022/01/21 09:44:12;;;;;;;7.47;2.50;;;12.80;56.30;;;;;;5034585;28;20467;-80
2022/01/21 09:46:44;;;;;;;15.43;2.50;;;12.80;56.40;;;;;;5033589;28;20439;-80
2022/01/21 09:49:26;;;;;;;12.20;2.53;;;12.80;55.90;;;;;;5036492;28;20433;-81
2022/01/21 09:51:55;;;;;;;14.43;3.70;;;12.50;57.30;;;;;;5035139;28;20540;-80
2022/01/21 09:54:23;;;;;;;13.37;2.30;;;12.90;57.10;;;;;;5035109;28;20444;-80
2022/01/21 09:56:53;;;;;;;15.27;2.63;;;13.00;57.10;;;;;;5028219;28;20484;-82
2022/01/21 09:59:22;;;;;;;11.73;2.73;;;13.10;56.80;;;;;;5028046;28;20475;-82
2022/01/21 10:01:50;;;;;;;7.23;2.40;;;13.20;57.60;;;;;;5030861;28;20471;-81
2022/01/21 10:04:19;;;;;;;8.27;2.73;;;13.20;57.00;;;;;;5035287;28;20464;-82
2022/01/21 10:06:47;;;;;;;11.83;2.63;;;13.30;58.00;;;;;;5042816;28;20432;-82
2022/01/21 10:09:16;;;;;;;9.90;2.33;;;13.30;57.80;;;;;;5034079;28;20468;-83
2022/01/21 10:11:48;;;;;;;11.33;2.13;;;13.30;57.50;;;;;;5033706;28;20559;-81
2022/01/21 10:14:19;;;;;;;9.47;2.03;;;13.30;58.30;;;;;;5029687;28;20465;-83
2022/01/21 10:16:48;;;;;;;7.83;2.33;;;13.70;57.20;;;;;;5028657;28;20468;-81
2022/01/21 10:19:22;;;;;;;12.57;3.70;;;14.20;58.50;;;;;;5031657;28;20444;-82
2022/01/21 10:21:57;;;;;;;10.60;2.73;;;14.50;55.10;;;;;;5028538;28;20438;-79
2022/01/21 10:24:26;;;;;;;15.07;3.27;;;14.50;54.80;;;;;;5021325;28;20479;-80
2022/01/21 10:26:55;;;;;;;8.60;3.23;;;14.00;55.30;;;;;;5019441;28;20460;-81
2022/01/21 10:29:25;;;;;;;8.90;2.90;;;14.10;55.50;;;;;;5018216;28;20476;-81
2022/01/21 10:31:57;;;;;;;18.23;2.97;;;13.90;55.80;;;;;;5019823;28;20433;-79
2022/01/21 10:34:26;;;;;;;12.27;2.83;;;13.90;56.00;;;;;;5017642;28;20453;-82
2022/01/21 10:37:05;;;;;;;14.97;3.40;;;14.10;55.60;;;;;;5019894;28;20476;-81
2022/01/21 10:39:35;;;;;;;9.70;2.80;;;14.20;56.20;;;;;;5021055;28;20981;-81
2022/01/21 10:42:45;;;;;;;14.23;3.20;;;14.50;55.00;;;;;;5017616;28;20449;-83
2022/01/21 10:45:22;;;;;;;10.27;2.40;;;14.70;54.40;;;;;;5031681;28;20436;-83
2022/01/21 10:47:50;;;;;;;12.60;3.10;;;14.80;54.40;;;;;;5032208;28;20439;-83
2022/01/21 10:50:19;;;;;;;12.20;2.60;;;14.80;52.90;;;;;;5026398;28;20459;-83
2022/01/21 10:52:51;;;;;;;11.93;2.53;;;14.80;53.60;;;;;;5032801;28;20427;-82
2022/01/21 10:55:29;;;;;;;10.73;2.73;;;14.80;52.90;;;;;;5040110;28;20439;-84
2022/01/21 10:58:05;;;;;;;8.03;2.97;;;14.80;53.60;;;;;;5041716;28;20439;-83
2022/01/21 11:00:34;;;;;;;7.73;2.90;;;14.90;52.90;;;;;;5019488;28;20472;-81
2022/01/21 11:03:09;;;;;;;13.20;2.80;;;15.00;53.90;;;;;;5018896;28;20456;-82
2022/01/21 11:05:41;;;;;;;10.67;2.23;;;14.90;52.40;;;;;;5019111;28;20444;-81
2022/01/21 11:08:09;;;;;;;9.27;2.20;;;14.90;53.40;;;;;;5020462;28;20455;-83
2022/01/21 11:10:48;;;;;;;8.73;1.93;;;15.00;52.90;;;;;;5020627;28;20940;-82
2022/01/21 11:13:27;;;;;;;11.60;2.33;;;15.10;53.60;;;;;;5018223;28;20464;-82
2022/01/21 11:15:58;;;;;;;10.87;2.33;;;15.10;51.60;;;;;;5020318;28;20467;-82
2022/01/21 11:18:50;;;;;;;10.00;2.40;;;14.90;52.10;;;;;;5020103;28;20440;-82
2022/01/21 11:21:18;;;;;;;12.07;4.00;;;14.70;52.70;;;;;;5020372;28;20452;-83
2022/01/21 11:23:46;;;;;;;13.13;4.80;;;14.80;52.40;;;;;;5019113;28;20510;-83
2022/01/21 11:26:16;;;;;;;16.13;4.30;;;14.50;52.40;;;;;;5019936;28;20522;-84
2022/01/21 11:28:47;;;;;;;12.10;3.57;;;14.30;54.80;;;;;;5023301;28;20457;-84
2022/01/21 11:31:17;;;;;;;12.07;3.37;;;14.50;52.70;;;;;;5024006;28;20460;-84
2022/01/21 11:34:00;;;;;;;15.37;3.23;;;14.30;54.00;;;;;;5022265;28;20520;-84
2022/01/21 11:36:28;;;;;;;21.20;3.47;;;14.40;55.00;;;;;;5023762;28;20476;-84
2022/01/21 11:38:58;;;;;;;11.20;2.97;;;14.40;53.10;;;;;;5024087;28;20448;-84
2022/01/21 11:41:28;;;;;;;11.87;2.70;;;14.00;53.90;;;;;;5022713;28;20444;-84
2022/01/21 11:44:00;;;;;;;6.60;2.50;;;14.10;54.20;;;;;;5023267;28;20469;-84
2022/01/21 11:46:48;;;;;;;15.87;3.03;;;14.00;54.80;;;;;;5023766;28;20467;-84
2022/01/21 11:49:20;;;;;;;27.53;2.90;;;14.10;53.50;;;;;;5023584;28;20437;-84
2022/01/21 11:51:48;;;;;;;10.90;3.33;;;13.90;54.00;;;;;;5023127;28;20522;-84
2022/01/21 11:54:18;;;;;;;14.23;3.67;;;13.80;54.10;;;;;;5022976;28;20464;-84
2022/01/21 11:56:47;;;;;;;10.50;2.40;;;13.70;54.70;;;;;;5023107;28;20476;-84
2022/01/21 11:59:31;;;;;;;14.27;2.77;;;13.70;54.50;;;;;;5022791;28;20463;-84
2022/01/21 12:02:00;;;;;;;10.90;2.87;;;13.60;55.20;;;;;;5027137;28;21005;-84
2022/01/21 12:04:42;;;;;;;10.77;2.67;;;13.70;54.60;;;;;;5030031;28;20495;-84
2022/01/21 12:07:57;;;;;;;8.83;2.60;;;13.70;55.40;;;;;;5028781;28;20452;-84
2022/01/21 12:10:33;;;;;;;17.33;3.57;;;13.90;54.20;;;;;;5023109;28;20455;-84
2022/01/21 12:13:10;;;;;;;19.27;3.10;;;13.70;54.80;;;;;;5023946;28;20471;-84
2022/01/21 12:19:21;;;;;;;16.97;2.90;;;13.70;55.80;;;;;;5022033;28;20530;-83
2022/01/21 12:21:51;;;;;;;15.97;3.30;;;14.00;54.40;;;;;;5018726;28;20460;-82
2022/01/21 12:25:01;;;;;;;20.00;3.30;;;13.80;54.70;;;;;;5022480;28;20457;-82
2022/01/21 12:27:29;;;;;;;17.20;3.03;;;13.70;54.70;;;;;;5024017;28;20499;-82
2022/01/21 12:30:26;;;;;;;17.03;3.30;;;13.70;55.10;;;;;;5023207;28;20511;-82
2022/01/21 12:32:56;;;;;;;22.43;4.07;;;13.80;54.70;;;;;;5022881;28;20464;-82
2022/01/21 12:35:25;;;;;;;16.77;2.97;;;13.70;55.10;;;;;;5022336;28;20476;-82
2022/01/21 12:40:59;;;;;;;18.83;4.07;;;13.80;55.00;;;;;;5023516;28;20432;-82
2022/01/21 12:43:37;;;;;;;13.97;3.40;;;13.70;55.40;;;;;;5021842;28;20468;-82
2022/01/21 12:46:06;;;;;;;15.83;2.80;;;13.70;54.90;;;;;;5023731;28;20459;-82
2022/01/21 12:48:36;;;;;;;14.40;3.50;;;13.50;55.70;;;;;;5022460;28;20459;-82
2022/01/21 12:51:16;;;;;;;18.07;2.93;;;13.70;56.30;;;;;;5022038;28;20475;-82
2022/01/21 12:56:42;;;;;;;13.73;3.17;;;14.10;55.50;;;;;;5029151;28;20470;-83
2022/01/21 12:59:17;;;;;;;22.10;3.90;;;14.00;55.10;;;;;;5013830;28;20503;-83
2022/01/21 13:01:48;;;;;;;16.30;3.33;;;14.20;54.30;;;;;;5023136;28;20453;-83
2022/01/21 13:04:31;;;;;;;22.00;3.07;;;14.30;54.60;;;;;;5021631;28;20468;-82
2022/01/21 13:07:07;;;;;;;19.53;3.43;;;14.40;55.20;;;;;;5001970;28;20535;-82
2022/01/21 13:09:52;;;;;;;15.87;3.80;;;14.40;54.30;;;;;;5018782;28;20448;-83
2022/01/21 13:12:45;;;;;;;15.87;2.90;;;14.30;53.90;;;;;;5022163;28;20464;-83
2022/01/21 13:15:13;;;;;;;13.93;3.40;;;14.20;54.40;;;;;;5039657;28;20471;-83
2022/01/21 13:17:42;;;;;;;11.70;2.80;;;14.20;55.20;;;;;;5040693;28;20498;-83
2022/01/21 13:20:10;;;;;;;25.43;3.70;;;14.30;55.00;;;;;;5040613;28;20498;-83
2022/01/21 13:22:41;;;;;;;12.70;2.73;;;14.40;54.80;;;;;;5039503;28;20443;-83
2022/01/21 13:25:14;;;;;;;10.27;2.67;;;14.20;54.50;;;;;;5038642;28;20472;-82
2022/01/21 13:27:45;;;;;;;11.63;2.30;;;14.10;54.70;;;;;;5038358;28;20447;-84
2022/01/21 13:30:14;;;;;;;9.40;2.50;;;14.10;56.20;;;;;;5039866;28;20435;-84
2022/01/21 13:32:42;;;;;;;10.73;2.30;;;14.40;55.40;;;;;;5050675;28;20432;-84
2022/01/21 13:35:12;;;;;;;7.37;2.90;;;14.40;55.90;;;;;;5049289;28;20461;-84
2022/01/21 13:37:42;;;;;;;12.83;2.57;;;14.40;55.40;;;;;;5046411;28;20470;-84
2022/01/21 13:40:11;;;;;;;8.93;2.20;;;14.60;54.60;;;;;;5044694;28;20536;-84
2022/01/21 13:42:39;;;;;;;8.43;2.27;;;14.70;54.80;;;;;;5047140;28;20448;-85
2022/01/21 13:45:11;;;;;;;5.70;1.80;;;14.80;55.30;;;;;;5042178;28;20447;-84
2022/01/21 13:47:40;;;;;;;9.50;2.20;;;14.90;54.30;;;;;;5040780;28;20819;-84
2022/01/21 13:54:40;;;;;;;9.17;2.50;;;15.00;53.20;;;;;;4992876;28;20455;-84